Time;durP1;ratioP1;P1;durP2;ratioP2;P2;SDS_P1;SDS_P2;PMS_P1;PMS_P2;Temp;Humidity;BMP_temperature;BMP_pressure;BME280_temperature;BME280_humidity;BME280_pressure;Samples;Min_cycle;Max_cycle;Signal;HPM_P1;HPM_P2
2022/05/08 00:00:05;;;;;;;5.68;5.47;;;;;;;11.10;67.04;101409.00;5033987;28;20025;-62
2022/05/08 00:02:31;;;;;;;6.60;6.30;;;;;;;10.99;66.70;101401.28;5033171;28;20033;-61
2022/05/08 00:04:57;;;;;;;6.30;6.00;;;;;;;11.10;67.10;101392.22;5033692;28;20477;-62
2022/05/08 00:07:23;;;;;;;5.68;5.47;;;;;;;11.12;66.37;101393.72;5034025;28;20120;-62
2022/05/08 00:09:49;;;;;;;5.78;5.57;;;;;;;10.94;67.53;101392.94;5031074;28;20029;-61
2022/05/08 00:12:16;;;;;;;6.00;5.80;;;;;;;10.81;67.28;101397.84;5032383;28;20044;-61
2022/05/08 00:14:43;;;;;;;6.00;5.80;;;;;;;10.73;67.90;101401.28;5034306;28;20057;-61
2022/05/08 00:17:13;;;;;;;6.00;5.80;;;;;;;10.85;67.50;101393.88;5033392;28;20761;-61
2022/05/08 00:19:43;;;;;;;6.97;6.68;;;;;;;10.59;68.64;101402.66;5032588;28;20017;-63
2022/05/08 00:22:11;;;;;;;6.00;5.80;;;;;;;10.63;68.21;101395.19;5034124;28;20041;-61
2022/05/08 00:24:36;;;;;;;6.60;6.30;;;;;;;10.50;68.98;101403.53;5033996;28;20025;-61
2022/05/08 00:27:02;;;;;;;5.90;5.70;;;;;;;10.44;68.96;101397.06;5035073;28;20393;-64
2022/05/08 00:29:28;;;;;;;6.20;5.90;;;;;;;10.44;68.81;101401.53;5034075;28;20400;-61
2022/05/08 00:31:53;;;;;;;5.80;5.60;;;;;;;10.32;68.88;101400.06;5033643;28;20108;-61
2022/05/08 00:34:19;;;;;;;5.82;5.63;;;;;;;10.34;69.23;101398.94;5032282;28;20155;-63
2022/05/08 00:36:44;;;;;;;5.85;5.65;;;;;;;10.40;69.46;101398.31;5033140;28;20473;-62
2022/05/08 00:39:10;;;;;;;5.53;5.32;;;;;;;10.33;68.51;101399.09;5033834;28;20025;-61
2022/05/08 00:41:36;;;;;;;5.70;5.50;;;;;;;10.23;70.01;101394.69;5033272;28;20119;-62
2022/05/08 00:44:03;;;;;;;5.70;5.50;;;;;;;10.12;70.47;101399.34;5033369;28;20048;-62
2022/05/08 00:46:29;;;;;;;6.38;6.10;;;;;;;10.12;70.03;101394.88;5032973;28;20385;-61
2022/05/08 00:48:55;;;;;;;6.20;5.90;;;;;;;9.86;71.76;101394.78;5032925;28;20025;-62
2022/05/08 00:51:21;;;;;;;5.60;5.40;;;;;;;9.87;70.85;101390.31;5032855;28;20465;-62
2022/05/08 00:53:50;;;;;;;5.80;5.60;;;;;;;9.56;72.17;101395.09;5032918;28;20028;-62
2022/05/08 00:56:18;;;;;;;5.50;5.30;;;;;;;9.40;71.96;101395.69;5033120;28;20033;-61
2022/05/08 00:58:46;;;;;;;5.70;5.50;;;;;;;9.36;72.05;101394.34;5032505;28;20167;-63
2022/05/08 01:01:13;;;;;;;5.70;5.50;;;;;;;9.50;70.76;101385.91;5033452;28;20515;-62
2022/05/08 01:03:39;;;;;;;5.97;5.78;;;;;;;9.33;71.27;101378.75;5031858;28;20059;-63
2022/05/08 01:06:06;;;;;;;5.80;5.60;;;;;;;9.30;71.59;101390.44;5019684;28;20030;-62
2022/05/08 01:08:34;;;;;;;5.95;5.75;;;;;;;9.19;72.07;101389.81;5033227;28;20028;-62
2022/05/08 01:11:05;;;;;;;5.88;5.68;;;;;;;9.09;72.45;101390.66;5033286;28;20036;-62
2022/05/08 01:13:31;;;;;;;5.82;5.63;;;;;;;9.05;72.07;101378.69;5032258;28;20040;-61
2022/05/08 01:15:56;;;;;;;5.47;5.28;;;;;;;9.04;72.41;101376.19;5031711;28;20017;-61
2022/05/08 01:18:23;;;;;;;6.25;5.95;;;;;;;9.00;72.25;101385.38;5033780;28;20432;-62
2022/05/08 01:20:50;;;;;;;5.88;5.68;;;;;;;9.01;72.02;101376.47;5033305;28;20416;-61
2022/05/08 01:23:16;;;;;;;5.70;5.50;;;;;;;8.89;72.17;101381.13;5033231;28;20022;-62
2022/05/08 01:25:53;;;;;;;5.70;5.50;;;;;;;8.80;71.79;101371.34;5031932;28;20026;-61
2022/05/08 01:28:19;;;;;;;5.65;5.45;;;;;;;8.70;71.56;101378.50;5032663;28;20040;-63
2022/05/08 01:30:47;;;;;;;6.30;6.00;;;;;;;8.70;71.66;101387.25;5032511;28;20025;-62
2022/05/08 01:33:14;;;;;;;5.80;5.60;;;;;;;8.61;72.29;101384.63;5035306;28;20417;-62
2022/05/08 01:35:41;;;;;;;6.20;5.90;;;;;;;8.61;71.60;101384.63;5036018;28;20103;-61
2022/05/08 01:38:08;;;;;;;5.60;5.40;;;;;;;8.54;71.60;101390.47;5021895;28;20040;-62
2022/05/08 01:40:33;;;;;;;6.07;5.80;;;;;;;8.54;71.31;101385.19;5032619;28;20028;-61
2022/05/08 01:42:59;;;;;;;5.65;5.45;;;;;;;8.48;71.85;101383.09;5032530;28;20046;-63
2022/05/08 01:45:25;;;;;;;6.05;5.78;;;;;;;8.51;71.98;101379.34;5032400;28;20072;-61
2022/05/08 01:50:36;;;;;;;5.75;5.55;;;;;;;8.54;71.85;101384.34;5020178;28;20037;-62
2022/05/08 01:53:01;;;;;;;5.40;5.20;;;;;;;8.49;71.57;101376.84;5032324;28;20025;-62
2022/05/08 01:55:27;;;;;;;5.47;5.28;;;;;;;8.51;71.31;101376.69;5032406;28;20112;-62
2022/05/08 01:57:55;;;;;;;5.50;5.30;;;;;;;8.39;71.97;101381.31;5032268;28;20040;-63
2022/05/08 02:00:22;;;;;;;6.28;5.97;;;;;;;8.31;73.55;101383.78;5032317;28;20102;-62
2022/05/08 02:02:49;;;;;;;5.60;5.40;;;;;;;8.42;72.19;101382.81;5032107;28;20473;-62
2022/05/08 02:05:19;;;;;;;5.70;5.50;;;;;;;8.37;71.52;101377.94;5027095;28;20038;-61
2022/05/08 02:07:46;;;;;;;5.85;5.65;;;;;;;8.53;71.36;101372.94;5024449;28;20029;-61
2022/05/08 02:10:13;;;;;;;6.18;5.88;;;;;;;8.47;71.86;101378.78;5033450;28;20492;-63
2022/05/08 02:12:39;;;;;;;6.28;5.97;;;;;;;8.35;72.81;101377.25;5030215;28;20025;-62
2022/05/08 02:15:06;;;;;;;5.50;5.30;;;;;;;8.36;72.20;101388.66;5031602;28;20048;-62
2022/05/08 02:17:32;;;;;;;5.60;5.40;;;;;;;8.34;71.63;101394.06;5030844;28;20499;-61
2022/05/08 02:19:57;;;;;;;5.68;5.47;;;;;;;8.26;72.92;101388.63;5031793;28;20045;-61
2022/05/08 02:22:23;;;;;;;5.70;5.50;;;;;;;8.17;73.68;101392.13;5032115;28;20025;-62
2022/05/08 02:24:49;;;;;;;5.85;5.65;;;;;;;8.26;73.19;101384.19;5023149;28;20112;-62
2022/05/08 02:27:15;;;;;;;6.18;5.88;;;;;;;8.21;73.08;101389.03;5029135;28;20041;-61
2022/05/08 02:29:42;;;;;;;6.13;5.82;;;;;;;8.18;73.34;101394.63;5030643;28;20504;-61
2022/05/08 02:32:08;;;;;;;5.55;5.35;;;;;;;8.21;73.00;101402.25;5031738;28;20029;-62
2022/05/08 02:34:33;;;;;;;6.55;6.25;;;;;;;8.13;73.05;101396.00;5030428;28;20099;-60
2022/05/08 02:36:59;;;;;;;5.68;5.47;;;;;;;8.16;73.01;101399.22;5026392;28;20030;-61
2022/05/08 02:39:24;;;;;;;5.70;5.50;;;;;;;8.19;73.19;101411.31;5030410;28;20033;-62
2022/05/08 02:41:52;;;;;;;6.03;5.78;;;;;;;8.35;72.36;101398.41;5031356;28;20025;-61
2022/05/08 02:44:18;;;;;;;5.60;5.40;;;;;;;8.28;72.53;101400.72;5029628;28;20117;-62
2022/05/08 02:46:43;;;;;;;5.93;5.70;;;;;;;8.37;71.49;101407.03;5022767;28;20254;-61
2022/05/08 02:49:09;;;;;;;5.50;5.30;;;;;;;8.36;71.26;101413.28;5029839;28;20650;-62
2022/05/08 02:51:34;;;;;;;6.38;6.07;;;;;;;8.50;71.02;101409.41;5030061;28;20053;-61
2022/05/08 02:54:00;;;;;;;5.60;5.40;;;;;;;8.47;71.14;101402.59;5027952;28;20021;-61
2022/05/08 02:59:10;;;;;;;5.60;5.40;;;;;;;8.65;69.17;101407.16;5028792;28;20056;-62
2022/05/08 03:01:36;;;;;;;6.45;6.15;;;;;;;8.60;70.31;101404.13;5036919;28;20033;-62
2022/05/08 03:04:02;;;;;;;5.47;5.28;;;;;;;8.76;69.92;101404.38;5030583;28;20038;-62
2022/05/08 03:06:27;;;;;;;5.95;5.70;;;;;;;9.04;68.69;101397.38;5029081;28;20092;-62
2022/05/08 03:08:53;;;;;;;5.90;5.70;;;;;;;9.06;68.42;101390.94;5029649;28;20120;-61
2022/05/08 03:11:28;;;;;;;6.00;5.78;;;;;;;9.47;66.78;101403.88;5029769;28;20048;-62
2022/05/08 03:13:55;;;;;;;5.50;5.30;;;;;;;9.60;66.20;101402.56;5028734;28;20040;-62
2022/05/08 03:16:22;;;;;;;5.50;5.30;;;;;;;9.16;67.84;101411.25;5035448;28;20400;-61
2022/05/08 03:18:49;;;;;;;5.72;5.53;;;;;;;9.25;68.07;101411.22;5029235;28;20116;-62
2022/05/08 03:21:15;;;;;;;5.90;5.70;;;;;;;9.11;68.33;101417.84;5030571;28;20113;-62
2022/05/08 03:23:42;;;;;;;6.05;5.80;;;;;;;9.36;67.57;101419.00;5029820;28;20037;-62
2022/05/08 03:26:08;;;;;;;5.68;5.47;;;;;;;9.47;67.27;101423.25;5030722;28;20473;-62
2022/05/08 03:28:35;;;;;;;5.60;5.40;;;;;;;9.47;66.85;101407.38;5031404;28;20083;-61
2022/05/08 03:31:04;;;;;;;5.68;5.47;;;;;;;9.02;68.05;101415.19;5034602;28;20017;-61
2022/05/08 03:33:32;;;;;;;5.70;5.50;;;;;;;9.29;67.76;101432.97;5042672;28;20017;-62
2022/05/08 03:35:58;;;;;;;5.72;5.53;;;;;;;9.42;67.22;101433.47;5030769;28;20025;-61
2022/05/08 03:38:25;;;;;;;5.45;5.25;;;;;;;9.40;67.85;101430.97;5019661;28;20029;-62
2022/05/08 03:40:51;;;;;;;5.50;5.30;;;;;;;9.36;67.95;101434.06;5031468;28;20033;-61
2022/05/08 03:43:16;;;;;;;5.65;5.45;;;;;;;9.37;67.83;101433.06;5030898;28;20111;-61
2022/05/08 03:45:43;;;;;;;6.20;5.90;;;;;;;9.39;67.09;101433.75;5030095;28;20030;-62
2022/05/08 03:48:09;;;;;;;5.97;5.78;;;;;;;9.52;68.48;101438.72;5030555;28;20029;-61
2022/05/08 03:50:35;;;;;;;6.65;6.35;;;;;;;9.38;68.30;101429.44;5033311;28;20079;-62
2022/05/08 03:53:04;;;;;;;5.80;5.60;;;;;;;9.52;66.65;101428.13;5034193;28;20099;-61
2022/05/08 03:55:29;;;;;;;5.65;5.45;;;;;;;9.49;66.99;101439.03;5030875;28;20393;-61
2022/05/08 03:57:55;;;;;;;5.70;5.50;;;;;;;9.49;66.58;101434.56;5025242;28;20037;-61
2022/05/08 04:00:21;;;;;;;6.35;6.05;;;;;;;9.61;66.35;101436.03;5020403;28;20044;-62
2022/05/08 04:02:47;;;;;;;5.80;5.60;;;;;;;9.36;67.04;101437.53;5033164;28;20029;-62
2022/05/08 04:05:13;;;;;;;5.90;5.70;;;;;;;9.73;65.75;101441.97;5034509;28;20021;-61
2022/05/08 04:07:38;;;;;;;6.43;6.13;;;;;;;9.39;67.57;101433.75;5033721;28;20052;-60
2022/05/08 04:10:05;;;;;;;6.00;5.75;;;;;;;9.28;68.00;101434.78;5031707;28;20044;-62
2022/05/08 04:12:30;;;;;;;5.88;5.68;;;;;;;9.29;68.00;101440.91;5031463;28;20036;-61
2022/05/08 04:14:56;;;;;;;5.60;5.40;;;;;;;9.27;68.22;101435.75;5038517;28;20033;-62
2022/05/08 04:17:21;;;;;;;5.60;5.40;;;;;;;9.66;67.43;101441.72;5034104;28;20048;-62
2022/05/08 04:19:47;;;;;;;5.80;5.60;;;;;;;9.52;67.44;101447.50;5032563;28;20101;-61
2022/05/08 04:24:57;;;;;;;5.38;5.18;;;;;;;9.49;68.13;101452.28;5031993;28;20040;-61
2022/05/08 04:27:23;;;;;;;5.90;5.70;;;;;;;9.67;68.20;101448.69;5034344;28;20033;-62
2022/05/08 04:29:49;;;;;;;5.68;5.47;;;;;;;9.79;68.44;101452.00;5032080;28;20413;-62
2022/05/08 04:32:14;;;;;;;6.10;5.85;;;;;;;9.88;67.51;101452.94;5031317;28;20033;-62
2022/05/08 04:34:40;;;;;;;5.78;5.57;;;;;;;10.01;66.81;101457.91;5033042;28;20036;-63
2022/05/08 04:37:05;;;;;;;5.75;5.55;;;;;;;9.56;69.20;101448.91;5033609;28;20159;-62
2022/05/08 04:39:31;;;;;;;5.88;5.68;;;;;;;10.07;67.34;101455.50;5033948;28;20538;-63
2022/05/08 04:41:57;;;;;;;5.50;5.30;;;;;;;9.88;67.03;101456.41;5034109;28;20029;-61
2022/05/08 04:44:22;;;;;;;5.80;5.60;;;;;;;10.12;67.42;101455.03;5033881;28;20481;-62
2022/05/08 04:46:47;;;;;;;5.70;5.50;;;;;;;10.00;66.60;101458.88;5030656;28;20021;-63
2022/05/08 04:49:13;;;;;;;6.00;5.80;;;;;;;10.10;67.44;101460.47;5037690;28;20105;-62
2022/05/08 04:51:39;;;;;;;6.00;5.80;;;;;;;9.92;67.92;101465.75;5032111;28;20400;-62
2022/05/08 04:54:04;;;;;;;6.10;5.80;;;;;;;10.39;67.03;101456.84;5032612;28;20102;-61
2022/05/08 04:56:30;;;;;;;6.63;6.32;;;;;;;10.54;66.72;101471.25;5033160;28;20679;-61
2022/05/08 04:58:56;;;;;;;5.88;5.68;;;;;;;10.31;64.93;101477.97;5034970;28;20025;-61
2022/05/08 05:01:22;;;;;;;5.97;5.78;;;;;;;10.24;64.95;101475.09;5032455;28;20028;-62
2022/05/08 05:03:48;;;;;;;5.80;5.60;;;;;;;10.26;64.54;101475.75;5029874;28;20112;-61
2022/05/08 05:06:14;;;;;;;5.70;5.50;;;;;;;10.43;64.38;101477.63;5033104;28;20017;-62
2022/05/08 05:08:39;;;;;;;6.40;6.10;;;;;;;10.19;64.98;101480.78;5032705;28;20052;-61
2022/05/08 05:11:08;;;;;;;5.65;5.45;;;;;;;10.08;64.79;101473.06;5029205;28;20429;-63
2022/05/08 05:13:38;;;;;;;6.75;6.45;;;;;;;10.21;64.31;101481.50;5030946;28;21468;-63
2022/05/08 05:16:04;;;;;;;5.63;5.43;;;;;;;10.35;63.93;101477.50;5033726;28;20049;-62
2022/05/08 05:18:30;;;;;;;5.90;5.70;;;;;;;10.58;63.87;101479.75;5027834;28;20370;-62
2022/05/08 05:20:55;;;;;;;6.25;5.95;;;;;;;11.10;62.24;101482.50;5026571;28;20033;-62
2022/05/08 05:23:21;;;;;;;6.55;6.25;;;;;;;10.74;62.56;101477.25;5031668;28;20465;-62
2022/05/08 05:25:46;;;;;;;5.68;5.47;;;;;;;10.50;63.48;101469.88;5031491;28;20044;-62
2022/05/08 05:28:12;;;;;;;5.70;5.50;;;;;;;10.85;62.81;101481.47;5033816;28;20029;-62
2022/05/08 05:30:37;;;;;;;6.40;6.10;;;;;;;10.89;63.06;101480.19;5031298;28;20063;-63
2022/05/08 05:33:03;;;;;;;6.07;5.85;;;;;;;11.01;62.35;101478.94;5031464;28;20055;-62
2022/05/08 05:35:29;;;;;;;6.05;5.82;;;;;;;10.59;63.85;101470.81;5031751;28;20037;-63
2022/05/08 05:37:55;;;;;;;5.80;5.60;;;;;;;10.69;63.92;101490.13;5032393;28;20061;-62
2022/05/08 05:40:20;;;;;;;6.00;5.80;;;;;;;11.12;62.87;101486.69;5030919;28;20029;-62
2022/05/08 05:42:47;;;;;;;5.60;5.40;;;;;;;10.91;63.28;101481.69;5028519;28;20575;-62
2022/05/08 05:45:12;;;;;;;6.07;5.88;;;;;;;11.17;62.46;101486.22;5030462;28;20489;-61
2022/05/08 05:47:52;;;;;;;5.80;5.60;;;;;;;11.29;62.47;101484.97;5022787;28;20037;-61
2022/05/08 05:50:18;;;;;;;5.65;5.45;;;;;;;11.35;63.05;101484.34;5029259;28;20029;-63
2022/05/08 05:52:43;;;;;;;5.80;5.60;;;;;;;11.21;62.65;101496.34;5030194;28;20398;-63
2022/05/08 05:55:09;;;;;;;5.85;5.65;;;;;;;10.93;63.60;101505.44;5029662;28;20025;-61
2022/05/08 05:57:35;;;;;;;5.80;5.60;;;;;;;11.53;61.92;101493.09;5030993;28;20032;-61
2022/05/08 06:00:06;;;;;;;5.95;5.75;;;;;;;11.63;61.85;101493.81;5030388;28;20029;-62
2022/05/08 06:02:32;;;;;;;6.43;6.13;;;;;;;11.65;62.20;101488.34;5030864;28;20485;-62
2022/05/08 06:04:58;;;;;;;6.20;5.90;;;;;;;11.79;62.17;101497.53;5024028;28;20026;-61
2022/05/08 06:07:23;;;;;;;5.80;5.60;;;;;;;12.18;61.23;101497.88;5036205;28;20037;-62
2022/05/08 06:09:49;;;;;;;5.80;5.60;;;;;;;12.57;60.08;101500.00;5031050;28;20021;-62
2022/05/08 06:12:14;;;;;;;5.80;5.60;;;;;;;12.96;59.05;101497.53;5031229;28;20037;-62
2022/05/08 06:14:40;;;;;;;5.75;5.55;;;;;;;12.81;59.50;101499.19;5032177;28;20056;-62
2022/05/08 06:17:06;;;;;;;5.72;5.53;;;;;;;12.80;59.34;101494.88;5031341;28;20026;-61
2022/05/08 06:19:32;;;;;;;6.90;6.60;;;;;;;13.31;57.67;101496.38;5029603;28;20546;-61
2022/05/08 06:21:58;;;;;;;5.80;5.60;;;;;;;13.08;58.62;101498.88;5030218;28;20035;-61
2022/05/08 06:24:23;;;;;;;6.40;6.10;;;;;;;12.82;59.71;101499.03;5031082;28;20151;-61
2022/05/08 06:26:49;;;;;;;6.00;5.80;;;;;;;14.68;54.95;101500.50;5031346;28;20082;-61
2022/05/08 06:29:14;;;;;;;5.85;5.65;;;;;;;14.54;55.71;101496.75;5026043;28;20040;-62
2022/05/08 06:31:40;;;;;;;6.00;5.80;;;;;;;13.08;58.40;101496.22;5032232;28;20025;-62
2022/05/08 06:34:06;;;;;;;6.32;6.03;;;;;;;13.31;58.48;101495.56;5030960;28;20160;-61
2022/05/08 06:36:32;;;;;;;6.00;5.80;;;;;;;14.64;55.17;101502.69;5030443;28;20030;-61
2022/05/08 06:38:58;;;;;;;6.10;5.90;;;;;;;14.86;53.56;101507.22;5032206;28;20021;-62
2022/05/08 06:41:24;;;;;;;6.10;5.90;;;;;;;14.73;54.57;101504.31;5027991;28;20026;-62
2022/05/08 06:43:50;;;;;;;5.97;5.78;;;;;;;14.75;54.67;101501.44;5031486;28;20452;-61
2022/05/08 06:46:15;;;;;;;6.40;6.10;;;;;;;17.99;46.29;101501.69;5031486;28;20017;-62
2022/05/08 06:48:41;;;;;;;6.22;6.03;;;;;;;19.37;43.64;101509.19;5031632;28;20029;-62
2022/05/08 06:51:06;;;;;;;6.40;6.10;;;;;;;17.52;45.28;101496.03;5016636;28;20037;-63
2022/05/08 06:53:32;;;;;;;6.70;6.40;;;;;;;19.90;41.29;101505.59;5031237;28;20488;-62
2022/05/08 06:55:58;;;;;;;6.68;6.38;;;;;;;22.55;36.37;101498.78;5021501;28;20030;-61
2022/05/08 06:58:26;;;;;;;6.70;6.40;;;;;;;23.40;34.33;101504.69;5027687;28;20045;-62
2022/05/08 07:03:36;;;;;;;6.70;6.40;;;;;;;23.35;33.44;101511.84;5027996;28;21773;-64
2022/05/08 07:06:01;;;;;;;6.80;6.50;;;;;;;23.59;32.17;101521.63;5041919;28;20029;-62
2022/05/08 07:08:27;;;;;;;6.80;6.50;;;;;;;23.86;33.02;101511.13;5030900;28;20043;-63
2022/05/08 07:10:53;;;;;;;6.80;6.50;;;;;;;20.08;35.66;101516.53;5031153;28;20029;-62
2022/05/08 07:13:25;;;;;;;6.57;6.28;;;;;;;21.39;36.02;101516.75;5029021;28;20556;-65
2022/05/08 07:15:51;;;;;;;6.90;6.60;;;;;;;24.19;30.24;101506.94;5029696;28;20032;-64
2022/05/08 07:18:18;;;;;;;6.72;6.43;;;;;;;26.39;28.96;101514.72;5030898;28;20025;-65
2022/05/08 07:20:43;;;;;;;6.78;6.47;;;;;;;25.62;28.68;101513.72;5029121;28;20033;-64
2022/05/08 07:23:09;;;;;;;7.10;6.80;;;;;;;23.26;33.05;101511.38;5024978;28;20025;-64
2022/05/08 07:25:35;;;;;;;6.80;6.50;;;;;;;21.27;35.55;101504.97;5031628;28;20453;-63
2022/05/08 07:28:00;;;;;;;6.82;6.53;;;;;;;22.01;35.62;101509.41;5034412;28;20037;-63
2022/05/08 07:30:26;;;;;;;6.65;6.35;;;;;;;20.41;38.53;101502.88;5035177;28;20071;-63
2022/05/08 07:32:51;;;;;;;6.50;6.20;;;;;;;20.21;39.20;101496.78;5034636;28;20025;-62
2022/05/08 07:38:01;;;;;;;6.60;6.30;;;;;;;21.29;35.65;101519.09;5026430;28;20036;-64
2022/05/08 07:40:27;;;;;;;6.80;6.50;;;;;;;21.34;37.32;101513.88;5027800;28;20033;-64
2022/05/08 07:42:53;;;;;;;6.53;6.22;;;;;;;18.75;41.97;101502.38;5034320;28;20045;-64
2022/05/08 07:45:18;;;;;;;6.95;6.65;;;;;;;23.15;33.45;101501.41;5033312;28;20029;-63
2022/05/08 07:47:44;;;;;;;6.57;6.28;;;;;;;22.58;35.24;101507.25;5034448;28;20030;-63
2022/05/08 07:50:09;;;;;;;6.95;6.65;;;;;;;23.30;34.45;101496.34;5034819;28;20037;-63
2022/05/08 07:52:39;;;;;;;6.60;6.30;;;;;;;21.62;35.85;101505.31;5033927;28;20019;-64
2022/05/08 07:55:06;;;;;;;6.85;6.55;;;;;;;21.10;36.99;101506.59;5032565;28;20036;-63
2022/05/08 07:57:31;;;;;;;6.68;6.38;;;;;;;23.47;34.58;101509.16;5034477;28;20033;-64
2022/05/08 07:59:57;;;;;;;6.68;6.38;;;;;;;23.00;34.09;101495.63;5030147;28;20458;-64
2022/05/08 08:02:22;;;;;;;6.60;6.30;;;;;;;22.34;35.42;101502.81;5033216;28;20131;-64
2022/05/08 08:04:47;;;;;;;6.75;6.45;;;;;;;20.91;38.53;101495.72;5033360;28;20021;-64
2022/05/08 08:07:13;;;;;;;6.80;6.50;;;;;;;22.41;34.88;101491.91;5031088;28;20025;-65
2022/05/08 08:09:38;;;;;;;6.90;6.60;;;;;;;20.36;38.98;101491.94;5040474;28;20472;-64
2022/05/08 08:12:04;;;;;;;6.75;6.45;;;;;;;21.23;37.09;101479.50;5037971;28;20037;-63
2022/05/08 08:14:30;;;;;;;6.90;6.60;;;;;;;22.28;36.34;101493.72;5026095;28;20029;-64
2022/05/08 08:16:55;;;;;;;6.70;6.40;;;;;;;21.64;34.74;101496.97;5027245;28;20028;-64
2022/05/08 08:19:21;;;;;;;6.85;6.55;;;;;;;21.32;35.70;101489.00;5043347;28;20128;-64
2022/05/08 08:21:46;;;;;;;6.80;6.50;;;;;;;20.60;38.48;101490.38;5030014;28;20025;-63
2022/05/08 08:24:12;;;;;;;6.93;6.63;;;;;;;22.28;34.86;101482.91;5030743;28;20022;-63
2022/05/08 08:26:40;;;;;;;6.80;6.50;;;;;;;20.91;36.85;101484.94;5032550;28;20029;-63
2022/05/08 08:29:06;;;;;;;6.70;6.40;;;;;;;22.25;35.34;101485.22;5030398;28;20101;-63
2022/05/08 08:31:31;;;;;;;6.80;6.50;;;;;;;22.46;33.72;101482.03;5031725;28;20598;-64
2022/05/08 08:33:58;;;;;;;6.70;6.40;;;;;;;20.49;37.88;101480.25;5010367;28;20374;-63
2022/05/08 08:36:23;;;;;;;6.80;6.50;;;;;;;21.35;35.52;101476.91;5032104;28;20400;-63
2022/05/08 08:38:49;;;;;;;6.78;6.47;;;;;;;24.81;30.02;101485.28;5025929;28;20029;-63
2022/05/08 08:41:15;;;;;;;6.70;6.40;;;;;;;23.37;31.55;101488.91;5032382;28;20037;-66
2022/05/08 08:49:22;;;;;;;6.45;6.15;;;;;;;20.59;35.25;101480.63;5032505;28;20044;-64
2022/05/08 08:51:49;;;;;;;6.57;6.28;;;;;;;20.87;34.39;101482.94;5033318;28;20032;-63
2022/05/08 08:54:17;;;;;;;6.70;6.40;;;;;;;24.36;28.66;101475.28;5031077;28;20034;-63
2022/05/08 08:56:42;;;;;;;6.85;6.55;;;;;;;25.20;25.58;101477.25;5032168;28;20445;-64
2022/05/08 08:59:09;;;;;;;6.80;6.50;;;;;;;24.65;23.86;101481.50;5021648;28;20034;-64
2022/05/08 09:01:42;;;;;;;6.57;6.28;;;;;;;23.26;24.34;101468.06;5031452;28;20037;-61
2022/05/08 09:04:09;;;;;;;6.75;6.45;;;;;;;23.62;24.28;101469.72;5034180;28;20489;-64
2022/05/08 09:06:43;;;;;;;6.70;6.40;;;;;;;23.99;23.17;101472.91;5037342;28;20041;-62
2022/05/08 09:09:23;;;;;;;;;;;;;;;24.52;23.36;101477.19;5033205;28;20083;-63
2022/05/08 09:11:49;;;;;;;6.45;6.15;;;;;;;24.95;25.78;101475.75;5032631;28;20383;-62
2022/05/08 09:14:34;;;;;;;6.40;6.10;;;;;;;22.76;25.20;101454.94;5033321;28;20035;-63
2022/05/08 09:17:01;;;;;;;6.47;6.18;;;;;;;22.60;23.46;101463.72;5032847;28;20029;-64
2022/05/08 09:19:37;;;;;;;6.60;6.30;;;;;;;22.79;19.89;101468.00;5035640;28;20029;-62
2022/05/08 09:22:11;;;;;;;6.60;6.30;;;;;;;22.25;20.91;101456.31;5028497;28;20108;-63
2022/05/08 09:24:50;;;;;;;6.53;6.22;;;;;;;22.60;20.01;101461.03;5032450;28;20060;-63
2022/05/08 09:27:17;;;;;;;6.60;6.30;;;;;;;23.00;19.77;101455.03;5026934;28;20120;-64
2022/05/08 09:29:44;;;;;;;6.72;6.43;;;;;;;22.43;19.48;101454.66;5033180;28;20056;-63
2022/05/08 09:32:10;;;;;;;6.68;6.38;;;;;;;22.16;20.48;101457.72;5020101;28;20497;-63
2022/05/08 09:35:08;;;;;;;6.50;6.20;;;;;;;24.17;18.95;101449.41;5031595;28;20029;-63
2022/05/08 09:37:50;;;;;;;6.70;6.40;;;;;;;21.75;19.27;101426.84;5009857;28;20125;-64
2022/05/08 09:40:20;;;;;;;6.60;6.30;;;;;;;22.32;19.83;101448.94;5030178;28;20047;-63
2022/05/08 09:42:47;;;;;;;6.50;6.20;;;;;;;22.64;19.15;101448.69;5026864;28;20446;-64
2022/05/08 09:45:13;;;;;;;6.68;6.38;;;;;;;22.15;19.67;101439.03;5032462;28;20029;-63
2022/05/08 09:47:49;;;;;;;7.00;6.70;;;;;;;22.17;20.55;101445.84;5039607;28;20060;-63
2022/05/08 09:50:16;;;;;;;6.20;6.00;;;;;;;22.28;20.47;101438.84;5031907;28;20056;-63
2022/05/08 09:52:45;;;;;;;6.70;6.40;;;;;;;22.62;20.19;101437.28;5032435;28;20112;-63
2022/05/08 09:55:12;;;;;;;6.10;5.90;;;;;;;21.93;19.64;101444.06;5032490;28;20125;-63
2022/05/08 09:57:39;;;;;;;6.47;6.18;;;;;;;21.44;19.54;101437.78;5032393;28;20431;-63
2022/05/08 10:00:06;;;;;;;6.78;6.47;;;;;;;21.63;18.73;101435.91;5032134;28;20029;-63
2022/05/08 10:02:31;;;;;;;6.93;6.63;;;;;;;22.52;18.96;101435.16;5038508;28;20044;-63
2022/05/08 10:04:58;;;;;;;6.70;6.40;;;;;;;22.17;19.38;101436.91;5031978;28;20021;-63
2022/05/08 10:07:24;;;;;;;6.60;6.30;;;;;;;22.10;18.53;101426.19;5030615;28;20024;-64
2022/05/08 10:15:34;;;;;;;6.50;6.20;;;;;;;21.56;18.93;101417.09;5026079;28;20032;-63
2022/05/08 10:18:21;;;;;;;6.53;6.22;;;;;;;21.71;20.28;101414.81;5032059;28;20029;-63
2022/05/08 10:21:12;;;;;;;6.40;6.10;;;;;;;21.98;19.34;101409.91;5028270;28;20435;-63
2022/05/08 10:23:37;;;;;;;6.38;6.07;;;;;;;21.36;20.02;101409.22;5031901;28;20029;-64
2022/05/08 10:26:16;;;;;;;6.40;6.10;;;;;;;21.30;18.96;101411.97;5031881;28;20032;-64
2022/05/08 10:29:03;;;;;;;6.60;6.30;;;;;;;21.66;20.50;101401.16;5023212;28;20025;-64
2022/05/08 10:31:44;;;;;;;6.40;6.10;;;;;;;21.43;20.62;101401.03;5031667;28;20511;-63
2022/05/08 10:34:11;;;;;;;6.40;6.10;;;;;;;21.21;20.57;101408.72;5031185;28;20116;-62
2022/05/08 10:36:37;;;;;;;6.68;6.38;;;;;;;21.36;19.77;101403.81;5029329;28;20037;-63
2022/05/08 10:39:41;;;;;;;6.47;6.18;;;;;;;20.92;20.72;101394.06;5031583;28;20025;-63
2022/05/08 10:42:29;;;;;;;6.20;6.00;;;;;;;20.67;19.20;101411.09;5030517;28;20029;-63
2022/05/08 10:44:57;;;;;;;6.30;6.05;;;;;;;20.95;19.63;101391.75;5031631;28;20048;-64
2022/05/08 10:47:32;;;;;;;6.53;6.22;;;;;;;21.03;19.73;101398.75;5031823;28;20439;-64
2022/05/08 10:49:58;;;;;;;6.50;6.20;;;;;;;21.12;20.09;101383.91;5031530;28;20453;-63
2022/05/08 10:52:24;;;;;;;6.82;6.53;;;;;;;21.32;20.52;101385.59;5030873;28;20681;-63
2022/05/08 10:55:00;;;;;;;6.50;6.20;;;;;;;21.30;21.53;101385.00;5030093;28;20023;-63
2022/05/08 10:57:33;;;;;;;6.90;6.60;;;;;;;21.41;20.50;101382.38;5039349;28;20013;-64
2022/05/08 11:00:03;;;;;;;6.43;6.13;;;;;;;21.02;20.96;101370.13;5037510;28;20018;-65
2022/05/08 11:02:42;;;;;;;6.28;6.00;;;;;;;21.08;20.81;101366.53;5035657;28;20025;-64
2022/05/08 11:05:09;;;;;;;6.65;6.35;;;;;;;21.80;21.60;101370.25;5028548;28;20489;-63
2022/05/08 11:07:34;;;;;;;6.50;6.20;;;;;;;21.67;22.02;101370.44;5029246;28;20033;-62
2022/05/08 11:10:00;;;;;;;6.63;6.32;;;;;;;21.35;19.94;101358.16;5033966;28;20041;-63
2022/05/08 11:12:26;;;;;;;6.72;6.43;;;;;;;21.29;20.72;101357.19;5035173;28;20052;-64
2022/05/08 11:15:07;;;;;;;6.50;6.20;;;;;;;21.39;20.72;101362.06;5026749;28;20365;-62
2022/05/08 11:17:32;;;;;;;6.50;6.20;;;;;;;21.01;21.62;101351.47;5032727;28;20026;-63
2022/05/08 11:19:58;;;;;;;6.70;6.40;;;;;;;21.22;20.74;101356.41;5034798;28;20094;-64
2022/05/08 11:22:23;;;;;;;6.50;6.20;;;;;;;21.49;21.31;101346.16;5033967;28;20021;-62
2022/05/08 11:24:49;;;;;;;6.65;6.35;;;;;;;21.16;21.38;101343.81;5034803;28;20048;-64
2022/05/08 11:27:15;;;;;;;6.70;6.40;;;;;;;21.68;21.82;101357.75;5041576;28;20033;-64
2022/05/08 11:29:50;;;;;;;6.80;6.50;;;;;;;21.63;21.38;101350.31;5034438;28;20029;-64
2022/05/08 11:38:03;;;;;;;6.50;6.20;;;;;;;21.74;21.96;101335.22;5035319;28;20091;-64
2022/05/08 11:40:29;;;;;;;6.63;6.32;;;;;;;21.92;22.12;101331.66;5028254;28;20118;-64
2022/05/08 11:42:55;;;;;;;6.47;6.18;;;;;;;21.62;21.64;101326.25;5034828;28;20048;-65
2022/05/08 11:45:21;;;;;;;7.05;6.75;;;;;;;21.56;21.79;101317.19;5034797;28;20397;-64
2022/05/08 11:47:50;;;;;;;6.50;6.20;;;;;;;21.61;22.65;101320.03;5034660;28;20412;-64
2022/05/08 11:50:16;;;;;;;6.57;6.28;;;;;;;21.34;22.51;101321.41;5034187;28;20038;-62
2022/05/08 11:52:41;;;;;;;6.57;6.28;;;;;;;21.42;22.26;101323.81;5034902;28;20018;-63
2022/05/08 11:55:08;;;;;;;6.57;6.28;;;;;;;21.71;22.49;101320.31;5034543;28;20021;-64
2022/05/08 11:57:41;;;;;;;6.40;6.10;;;;;;;21.82;22.56;101307.91;5033200;28;20032;-64
2022/05/08 12:00:13;;;;;;;6.25;6.05;;;;;;;21.24;21.96;101319.25;5034347;28;20493;-63